createdAt,value
2016-03-14T08:50:42.178Z,-5.11
2016-03-14T08:50:55.944Z,-5.11
2016-03-14T08:51:09.884Z,-5.12
2016-03-14T08:51:23.977Z,-5.12
2016-03-14T08:51:37.977Z,-5.12
2016-03-14T08:51:51.930Z,-5.19
2016-03-14T08:52:05.946Z,-5.23
2016-03-14T08:52:19.090Z,-5.27
2016-03-14T08:52:38.105Z,-5.31
2016-03-14T08:52:52.121Z,-5.24
2016-03-14T08:53:06.402Z,-5.35
2016-03-14T08:53:19.546Z,-5.24
2016-03-14T08:53:33.436Z,-5.38
2016-03-14T08:53:47.686Z,-5.4
2016-03-14T08:54:01.702Z,-5.38
2016-03-14T08:54:15.657Z,-5.45
2016-03-14T08:54:29.782Z,-5.56
2016-03-14T08:54:43.782Z,-5.44
2016-03-14T08:54:57.892Z,-5.35
2016-03-14T08:55:11.895Z,-5.35
2016-03-14T08:55:25.910Z,-5.33
2016-03-14T08:55:40.160Z,-5.3
2016-03-14T08:55:54.160Z,-5.24
2016-03-14T08:56:08.288Z,-5.29
2016-03-14T08:56:22.148Z,-5.29
2016-03-14T08:56:36.148Z,-5.19
2016-03-14T08:56:50.007Z,-5.29
2016-03-14T08:57:03.991Z,-5.4
2016-03-14T08:57:17.806Z,-5.4
2016-03-14T08:57:31.696Z,-5.44
2016-03-14T08:57:45.712Z,-5.24
2016-03-14T08:57:59.665Z,-5.3
2016-03-14T08:58:13.543Z,-5.26
2016-03-14T08:58:27.699Z,-5.27
2016-03-14T08:58:41.574Z,-5.22
2016-03-14T08:58:55.496Z,-5.23
2016-03-14T08:59:09.546Z,-5.22
2016-03-14T08:59:23.906Z,-5.26
2016-03-14T08:59:37.937Z,-5.35
2016-03-14T08:59:51.874Z,-5.31
2016-03-14T09:00:06.077Z,-5.37
2016-03-14T09:00:20.159Z,-5.42
2016-03-14T09:00:34.127Z,-5.41
2016-03-14T09:00:48.065Z,-5.44
2016-03-14T09:01:01.893Z,-5.45
2016-03-14T09:01:15.754Z,-5.52
2016-03-14T09:01:29.629Z,-5.51
2016-03-14T09:01:43.645Z,-5.66
2016-03-14T09:01:57.754Z,-5.51
2016-03-14T09:02:14.617Z,-5.63
2016-03-14T09:02:28.507Z,-5.63
2016-03-14T09:02:42.757Z,-5.55
2016-03-14T09:02:56.648Z,-5.55
2016-03-14T09:03:11.244Z,-5.62
2016-03-14T09:03:25.103Z,-5.65
2016-03-14T09:03:38.962Z,-5.63
2016-03-14T09:03:53.056Z,-5.7
2016-03-14T09:04:06.931Z,-5.79
2016-03-14T09:04:20.778Z,-5.89
2016-03-14T09:04:34.684Z,-5.84
2016-03-14T09:04:48.950Z,-5.86
2016-03-14T09:05:03.106Z,-5.87
2016-03-14T09:05:16.968Z,-5.84
2016-03-14T09:05:30.718Z,-5.92
2016-03-14T09:05:44.500Z,-5.91
2016-03-14T09:05:58.437Z,-5.89
2016-03-14T09:06:12.565Z,-5.84
2016-03-14T09:06:26.675Z,-5.91
2016-03-14T09:06:40.721Z,-5.94
2016-03-14T09:06:55.487Z,-5.86
2016-03-14T09:07:09.489Z,-5.89
2016-03-14T09:07:23.567Z,-5.87
2016-03-14T09:07:37.536Z,-5.86
2016-03-14T09:07:51.286Z,-5.77
2016-03-14T09:08:05.302Z,-5.86
2016-03-14T09:08:19.273Z,-5.87
2016-03-14T09:08:33.476Z,-5.84
2016-03-14T09:08:47.414Z,-5.84
2016-03-14T09:09:01.789Z,-5.86
2016-03-14T09:09:15.760Z,-5.81
2016-03-14T09:09:29.744Z,-5.79
2016-03-14T09:09:44.010Z,-5.81
2016-03-14T09:09:58.010Z,-5.83
2016-03-14T09:10:12.466Z,-5.86
2016-03-14T09:10:26.481Z,-5.84
2016-03-14T09:10:40.497Z,-5.94
2016-03-14T09:10:54.763Z,-5.95
2016-03-14T09:11:08.906Z,-5.87
2016-03-14T09:11:22.734Z,-5.87
2016-03-14T09:11:36.891Z,-5.91
2016-03-14T09:11:50.875Z,-5.91
2016-03-14T09:12:04.875Z,-5.91
2016-03-14T09:12:18.893Z,-5.97
2016-03-14T09:12:32.768Z,-6.05
2016-03-14T09:12:46.705Z,-5.99
2016-03-14T09:13:00.658Z,-6.02
2016-03-14T09:13:13.755Z,-6.02
2016-03-14T09:13:28.068Z,-6.07
2016-03-14T09:13:42.458Z,-5.94
2016-03-14T09:13:56.333Z,-6.02
2016-03-14T09:14:10.242Z,-5.95
2016-03-14T09:14:24.742Z,-6.01
2016-03-14T09:14:38.664Z,-5.98
2016-03-14T09:14:52.899Z,-6.01
2016-03-14T09:15:06.836Z,-5.98
2016-03-14T09:15:21.105Z,-5.99
2016-03-14T09:15:34.995Z,-6.05
2016-03-14T09:15:49.152Z,-6.05
2016-03-14T09:16:03.089Z,-6.18
2016-03-14T09:16:17.029Z,-6.19
2016-03-14T09:16:30.919Z,-6.13
2016-03-14T09:16:44.935Z,-6.18
2016-03-14T09:16:58.888Z,-6.15
2016-03-14T09:17:13.141Z,-6.18
2016-03-14T09:17:27.094Z,-6.12
2016-03-14T09:17:40.985Z,-6.13
2016-03-14T09:17:54.985Z,-6.23
2016-03-14T09:18:09.377Z,-6.34
2016-03-14T09:18:23.018Z,-6.3
2016-03-14T09:18:36.956Z,-6.34
2016-03-14T09:18:50.971Z,-6.36
2016-03-14T09:19:05.002Z,-6.37
2016-03-14T09:19:19.116Z,-6.36
2016-03-14T09:19:33.522Z,-6.44
2016-03-14T09:19:47.413Z,-6.37
2016-03-14T09:20:01.538Z,-6.41
2016-03-14T09:20:15.743Z,-6.51
2016-03-14T09:20:29.883Z,-6.52
2016-03-14T09:20:43.868Z,-6.52
2016-03-14T09:20:57.883Z,-6.59
2016-03-14T09:21:11.902Z,-6.59
2016-03-14T09:21:25.918Z,-6.62
2016-03-14T09:21:40.011Z,-6.63
2016-03-14T09:21:53.902Z,-6.65
2016-03-14T09:22:07.902Z,-6.65
2016-03-14T09:22:21.873Z,-6.68
2016-03-14T09:22:49.873Z,-6.74
2016-03-14T09:23:03.763Z,-6.67
2016-03-14T09:23:17.657Z,-6.68
2016-03-14T09:23:31.798Z,-6.77
2016-03-14T09:23:45.845Z,-6.74
2016-03-14T09:24:00.235Z,-6.89
2016-03-14T09:24:14.206Z,-6.83
2016-03-14T09:24:28.456Z,-6.91
2016-03-14T09:24:42.347Z,-6.97
2016-03-14T09:24:56.722Z,-6.91
2016-03-14T09:25:10.944Z,-6.95
2016-03-14T09:25:25.147Z,-6.98
2016-03-14T09:25:39.163Z,-6.89
2016-03-14T09:25:53.022Z,-6.92
2016-03-14T09:26:07.163Z,-6.91
2016-03-14T09:26:21.243Z,-6.95
2016-03-14T09:26:35.321Z,-7.01
2016-03-14T09:26:49.696Z,-6.99
2016-03-14T09:27:03.837Z,-7.01
2016-03-14T09:27:17.856Z,-7.06
2016-03-14T09:27:31.840Z,-7.02
2016-03-14T09:27:45.746Z,-7.02
2016-03-14T09:27:59.824Z,-7.07
2016-03-14T09:28:13.826Z,-7.07
2016-03-14T09:28:27.733Z,-7.06
2016-03-14T09:28:41.608Z,-7.05
2016-03-14T09:28:55.608Z,-7.01
2016-03-14T09:29:09.892Z,-7.02
2016-03-14T09:29:23.157Z,-7.01
2016-03-14T09:29:37.298Z,-7.05
2016-03-14T09:29:51.189Z,-7.12
2016-03-14T09:30:05.314Z,-7.06
2016-03-14T09:30:19.285Z,-7.09
2016-03-14T09:30:32.473Z,-7.05
2016-03-14T09:30:46.692Z,-7.07
2016-03-14T09:31:00.723Z,-7.09
2016-03-14T09:31:14.694Z,-7.1
2016-03-14T09:31:28.756Z,-7.06
2016-03-14T09:31:42.787Z,-7.12
2016-03-14T09:31:56.850Z,-7.05
2016-03-14T09:32:11.057Z,-7.12
2016-03-14T09:32:24.745Z,-7.06
2016-03-14T09:32:38.823Z,-7.1
2016-03-14T09:32:53.151Z,-7.1
2016-03-14T09:33:07.182Z,-7.09
2016-03-14T09:33:21.231Z,-7.07
2016-03-14T09:33:35.325Z,-7.09
2016-03-14T09:33:49.247Z,-7.09
2016-03-14T09:34:03.278Z,-7.1
2016-03-14T09:34:17.343Z,-7.06
2016-03-14T09:34:31.703Z,-6.99
2016-03-14T09:34:46.062Z,-7.06
2016-03-14T09:35:00.156Z,-7.15
2016-03-14T09:35:14.486Z,-7.05
2016-03-14T09:35:28.580Z,-7.09
2016-03-14T09:35:42.736Z,-7.01
2016-03-14T09:35:56.752Z,-7.07
2016-03-14T09:36:10.755Z,-7.05
2016-03-14T09:36:24.083Z,-7.06
2016-03-14T09:36:38.348Z,-7.07
2016-03-14T09:36:52.301Z,-6.98
2016-03-14T09:37:06.239Z,-7.01
2016-03-14T09:37:20.242Z,-7.12
2016-03-14T09:37:34.445Z,-6.98
2016-03-14T09:37:48.711Z,-7.05
2016-03-14T09:38:02.711Z,-6.98
2016-03-14T09:38:16.729Z,-6.92
2016-03-14T09:38:30.698Z,-6.97
2016-03-14T09:38:44.714Z,-6.97
2016-03-14T09:38:58.823Z,-6.98
2016-03-14T09:39:13.138Z,-6.91
2016-03-14T09:39:27.184Z,-7.01
2016-03-14T09:39:41.200Z,-6.94
2016-03-14T09:39:55.513Z,-7.05
2016-03-14T09:40:09.594Z,-7.07
2016-03-14T09:40:23.609Z,-7.13
2016-03-14T09:40:37.578Z,-7.07
2016-03-14T09:40:51.484Z,-7.09
2016-03-14T09:41:05.453Z,-7.09
2016-03-14T09:41:19.831Z,-7.02
2016-03-14T09:41:33.722Z,-7.02
2016-03-14T09:41:47.862Z,-7.02
2016-03-14T09:42:01.753Z,-7.09
2016-03-14T09:42:15.693Z,-7.06
2016-03-14T09:42:30.272Z,-7.1
2016-03-14T09:42:44.225Z,-7.12
2016-03-14T09:42:58.225Z,-7.09
2016-03-14T09:43:12.774Z,-7.09
2016-03-14T09:43:26.680Z,-7.1
2016-03-14T09:43:40.711Z,-7.12
2016-03-14T09:43:54.555Z,-7.06
2016-03-14T09:44:07.727Z,-7.1
2016-03-14T09:44:21.745Z,-7.09
2016-03-14T09:44:35.683Z,-7.1
2016-03-14T09:44:49.777Z,-7.1
2016-03-14T09:45:02.917Z,-7.13
2016-03-14T09:45:17.248Z,-7.09
2016-03-14T09:45:31.373Z,-7.07
2016-03-14T09:45:45.639Z,-7.09
2016-03-14T09:45:59.576Z,-7.07
2016-03-14T09:46:13.688Z,-7.07
2016-03-14T09:46:41.750Z,-7.13
2016-03-14T09:46:55.875Z,-7.16
2016-03-14T09:47:09.847Z,-7.15
2016-03-14T09:47:23.706Z,-7.16
2016-03-14T09:47:37.863Z,-7.12
2016-03-14T09:47:52.331Z,-7.2
2016-03-14T09:48:06.613Z,-7.12
2016-03-14T09:48:20.833Z,-7.12
2016-03-14T09:48:34.912Z,-7.09
2016-03-14T09:48:49.177Z,-7.09
2016-03-14T09:49:03.193Z,-7.1
2016-03-14T09:49:17.196Z,-7.1
2016-03-14T09:49:31.008Z,-7.15
2016-03-14T09:49:45.274Z,-7.09
2016-03-14T09:49:59.508Z,-7.19
2016-03-14T09:50:13.621Z,-7.28
2016-03-14T09:50:27.918Z,-7.19
2016-03-14T09:50:41.996Z,-7.24
2016-03-14T09:50:56.027Z,-7.28
2016-03-14T09:51:10.013Z,-7.24
2016-03-14T09:51:24.060Z,-7.24
2016-03-14T09:51:38.248Z,-7.17
2016-03-14T09:51:52.685Z,-7.28
2016-03-14T09:52:06.873Z,-7.24
2016-03-14T09:52:21.017Z,-7.17
2016-03-14T09:52:34.986Z,-7.17
2016-03-14T09:52:49.049Z,-7.15
2016-03-14T09:53:03.064Z,-7.1
2016-03-14T09:53:17.066Z,-7.12
2016-03-14T09:53:31.332Z,-7.07
2016-03-14T09:53:45.285Z,-7.05
2016-03-14T09:53:59.551Z,-7.06
2016-03-14T09:54:13.491Z,-7.09
2016-03-14T09:54:27.741Z,-7.07
2016-03-14T09:54:41.882Z,-7.05
2016-03-14T09:54:56.397Z,-7.13
2016-03-14T09:55:11.384Z,-7.09
2016-03-14T09:55:25.524Z,-7.22
2016-03-14T09:55:39.696Z,-7.17
2016-03-14T09:55:53.571Z,-7.09
2016-03-14T09:56:07.681Z,-7.06
2016-03-14T09:56:21.824Z,-7.02
2016-03-14T09:56:35.965Z,-6.92
2016-03-14T09:56:50.059Z,-6.89
2016-03-14T09:57:04.277Z,-6.95
2016-03-14T09:57:18.139Z,-6.97
2016-03-14T09:58:00.482Z,-6.97
2016-03-14T09:58:14.673Z,-6.94
2016-03-14T09:58:28.689Z,-6.98
2016-03-14T09:58:42.548Z,-6.87
2016-03-14T09:58:56.595Z,-6.92
2016-03-14T09:59:10.613Z,-6.87
2016-03-14T09:59:24.692Z,-6.88
2016-03-14T09:59:38.754Z,-6.74
2016-03-14T09:59:52.942Z,-6.76
2016-03-14T10:00:06.957Z,-6.78
2016-03-14T10:00:21.288Z,-6.83
2016-03-14T10:00:35.429Z,-6.83
2016-03-14T10:00:50.054Z,-6.87
2016-03-14T10:01:04.257Z,-6.84
2016-03-14T10:01:18.573Z,-6.84
2016-03-14T10:01:32.573Z,-6.91
2016-03-14T10:01:46.729Z,-6.92
2016-03-14T10:02:00.307Z,-6.99
2016-03-14T10:02:14.246Z,-6.81
2016-03-14T10:02:27.590Z,-6.83
2016-03-14T10:02:41.653Z,-6.78
2016-03-14T10:02:55.731Z,-6.68
2016-03-14T10:03:09.996Z,-6.73
2016-03-14T10:03:23.968Z,-6.74
2016-03-14T10:03:37.765Z,-6.84
2016-03-14T10:03:51.828Z,-6.91
2016-03-14T10:04:34.424Z,-6.87
2016-03-14T10:04:48.377Z,-6.91
2016-03-14T10:05:02.393Z,-6.95
2016-03-14T10:05:16.567Z,-6.91
2016-03-14T10:05:30.926Z,-6.88
2016-03-14T10:05:44.817Z,-6.91
2016-03-14T10:05:58.770Z,-6.92
2016-03-14T10:06:12.539Z,-6.83
2016-03-14T10:06:26.419Z,-6.88
2016-03-14T10:06:40.653Z,-6.87
2016-03-14T10:06:55.247Z,-6.84
2016-03-14T10:07:08.642Z,-6.78
2016-03-14T10:07:22.707Z,-6.83
2016-03-14T10:07:36.644Z,-6.88
2016-03-14T10:07:50.613Z,-6.81
2016-03-14T10:08:04.738Z,-6.78
2016-03-14T10:08:18.851Z,-6.76
2016-03-14T10:08:32.758Z,-6.71
2016-03-14T10:08:47.054Z,-6.81
2016-03-14T10:09:01.664Z,-6.84
2016-03-14T10:09:15.619Z,-6.88
2016-03-14T10:09:29.635Z,-6.87
2016-03-14T10:09:43.619Z,-6.98
2016-03-14T10:09:57.728Z,-6.92
2016-03-14T10:10:11.919Z,-6.98
2016-03-14T10:10:25.872Z,-6.97
2016-03-14T10:10:42.856Z,-6.83
2016-03-14T10:11:11.247Z,-6.94
2016-03-14T10:11:25.311Z,-6.87
2016-03-14T10:11:39.765Z,-6.78
2016-03-14T10:11:53.890Z,-6.88
2016-03-14T10:12:07.921Z,-6.89
2016-03-14T10:12:21.814Z,-6.89
2016-03-14T10:12:35.814Z,-6.87
2016-03-14T10:12:49.768Z,-6.83
2016-03-14T10:13:03.596Z,-6.92
2016-03-14T10:13:17.583Z,-6.87
2016-03-14T10:13:31.552Z,-6.83
2016-03-14T10:13:45.755Z,-6.81
2016-03-14T10:14:00.021Z,-6.7
2016-03-14T10:14:13.914Z,-6.8
2016-03-14T10:14:28.180Z,-6.74
2016-03-14T10:14:42.445Z,-6.71
2016-03-14T10:14:56.274Z,-6.76
2016-03-14T10:15:10.289Z,-6.68
2016-03-14T10:15:23.229Z,-6.77
2016-03-14T10:15:37.479Z,-6.68
2016-03-14T10:15:51.479Z,-6.83
2016-03-14T10:16:05.510Z,-6.78
2016-03-14T10:16:19.763Z,-6.73
2016-03-14T10:16:33.779Z,-6.7
2016-03-14T10:16:47.794Z,-6.67
2016-03-14T10:17:01.919Z,-6.76
2016-03-14T10:17:15.781Z,-6.73
2016-03-14T10:17:29.015Z,-6.81
2016-03-14T10:17:43.390Z,-6.78
2016-03-14T10:17:57.577Z,-6.74
2016-03-14T10:18:11.546Z,-6.8
2016-03-14T10:18:25.518Z,-6.88
2016-03-14T10:18:39.580Z,-6.91
2016-03-14T10:18:53.799Z,-6.97
2016-03-14T10:19:08.018Z,-6.99
2016-03-14T10:19:22.052Z,-7.07
2016-03-14T10:19:36.271Z,-7.02
2016-03-14T10:19:50.162Z,-7.05
2016-03-14T10:20:04.146Z,-7.02
2016-03-14T10:20:18.117Z,-7.09
2016-03-14T10:20:32.257Z,-7.01
2016-03-14T10:20:46.742Z,-7.05
2016-03-14T10:21:01.007Z,-7.05
2016-03-14T10:21:15.121Z,-7.02
2016-03-14T10:21:29.011Z,-6.97
2016-03-14T10:21:43.371Z,-7.01
2016-03-14T10:21:57.621Z,-7.01
2016-03-14T10:22:11.511Z,-7.06
2016-03-14T10:22:25.404Z,-7.01
2016-03-14T10:22:39.529Z,-6.94
2016-03-14T10:22:53.841Z,-6.94
2016-03-14T10:23:07.795Z,-6.97
2016-03-14T10:23:21.813Z,-6.95
2016-03-14T10:23:35.766Z,-7.02
2016-03-14T10:23:49.876Z,-6.98
2016-03-14T10:24:03.844Z,-6.98
2016-03-14T10:24:18.065Z,-7.05
2016-03-14T10:24:32.003Z,-6.95
2016-03-14T10:24:46.018Z,-7.15
2016-03-14T10:25:00.081Z,-7.02
2016-03-14T10:25:14.787Z,-7.02
2016-03-14T10:25:29.349Z,-7.05
2016-03-14T10:25:43.740Z,-7.06
2016-03-14T10:25:57.881Z,-6.99
2016-03-14T10:26:12.021Z,-7.07
2016-03-14T10:26:26.149Z,-7.07
2016-03-14T10:26:40.415Z,-7.05
2016-03-14T10:26:54.399Z,-7.01
2016-03-14T10:27:08.431Z,-6.97
2016-03-14T10:27:22.433Z,-7.01
2016-03-14T10:27:36.464Z,-6.97
2016-03-14T10:27:51.089Z,-6.97
2016-03-14T10:28:05.026Z,-6.95
2016-03-14T10:28:18.999Z,-6.94
2016-03-14T10:28:33.015Z,-6.99
2016-03-14T10:28:47.374Z,-6.91
2016-03-14T10:29:01.999Z,-6.92
2016-03-14T10:29:15.907Z,-6.89
2016-03-14T10:29:29.923Z,-6.92
2016-03-14T10:29:44.189Z,-6.87
2016-03-14T10:29:57.329Z,-6.92
2016-03-14T10:30:11.439Z,-6.87
2016-03-14T10:30:25.551Z,-6.92
2016-03-14T10:30:39.504Z,-6.87
2016-03-14T10:30:53.676Z,-6.88
2016-03-14T10:31:07.817Z,-6.98
2016-03-14T10:31:21.944Z,-6.95
2016-03-14T10:31:35.975Z,-6.98
2016-03-14T10:31:50.225Z,-7.01
2016-03-14T10:32:04.428Z,-6.97
2016-03-14T10:32:18.415Z,-6.94
2016-03-14T10:32:32.650Z,-6.94
2016-03-14T10:32:46.775Z,-6.88
2016-03-14T10:33:00.790Z,-6.88
2016-03-14T10:33:14.668Z,-6.83
2016-03-14T10:33:28.934Z,-6.88
2016-03-14T10:33:43.043Z,-6.76
2016-03-14T10:33:56.965Z,-6.73
2016-03-14T10:34:11.106Z,-6.77
2016-03-14T10:34:25.234Z,-6.76
2016-03-14T10:34:40.046Z,-6.8
2016-03-14T10:34:53.999Z,-6.88
2016-03-14T10:35:08.124Z,-6.88
2016-03-14T10:35:22.095Z,-6.95
2016-03-14T10:35:36.173Z,-6.97
2016-03-14T10:35:50.173Z,-6.91
2016-03-14T10:36:04.111Z,-6.94
2016-03-14T10:36:18.238Z,-6.84
2016-03-14T10:36:32.019Z,-6.88
2016-03-14T10:36:46.285Z,-6.77
2016-03-14T10:37:00.175Z,-6.76
2016-03-14T10:37:14.163Z,-6.78
2016-03-14T10:37:28.241Z,-6.78
2016-03-14T10:37:42.303Z,-6.73
2016-03-14T10:37:56.163Z,-6.77
2016-03-14T10:38:10.053Z,-6.76
2016-03-14T10:38:23.947Z,-6.71
2016-03-14T10:38:37.884Z,-6.71
2016-03-14T10:38:52.025Z,-6.83
2016-03-14T10:39:20.091Z,-6.84
2016-03-14T10:39:34.200Z,-6.78
2016-03-14T10:39:48.075Z,-6.87
2016-03-14T10:40:02.059Z,-6.81
2016-03-14T10:40:16.014Z,-6.71
2016-03-14T10:40:30.108Z,-6.73
2016-03-14T10:40:44.155Z,-6.7
2016-03-14T10:41:01.171Z,-6.73
2016-03-14T10:41:15.096Z,-6.65
2016-03-14T10:41:28.986Z,-6.68
2016-03-14T10:41:42.955Z,-6.73
2016-03-14T10:41:56.892Z,-6.68
2016-03-14T10:42:11.221Z,-6.59
2016-03-14T10:42:25.270Z,-6.65
2016-03-14T10:42:39.552Z,-6.54
2016-03-14T10:42:53.520Z,-6.62
2016-03-14T10:43:07.489Z,-6.59
2016-03-14T10:43:21.805Z,-6.54
2016-03-14T10:43:35.805Z,-6.55
2016-03-14T10:43:49.914Z,-6.41
2016-03-14T10:44:03.836Z,-6.51
2016-03-14T10:44:17.994Z,-6.49
2016-03-14T10:44:32.104Z,-6.41
2016-03-14T10:44:46.463Z,-6.44
2016-03-14T10:45:00.385Z,-6.41
2016-03-14T10:45:14.325Z,-6.38
2016-03-14T10:45:28.685Z,-6.44
2016-03-14T10:45:42.482Z,-6.43
2016-03-14T10:45:55.732Z,-6.49
2016-03-14T10:46:09.638Z,-6.46
2016-03-14T10:46:23.531Z,-6.46
2016-03-14T10:46:37.563Z,-6.44
2016-03-14T10:46:52.110Z,-6.43
2016-03-14T10:47:06.203Z,-6.37
2016-03-14T10:47:20.362Z,-6.4
2016-03-14T10:47:34.268Z,-6.43
2016-03-14T10:47:48.283Z,-6.4
2016-03-14T10:48:02.299Z,-6.43
2016-03-14T10:48:16.396Z,-6.44
2016-03-14T10:48:30.380Z,-6.46
2016-03-14T10:48:44.458Z,-6.43
2016-03-14T10:49:01.380Z,-6.43
2016-03-14T10:49:15.508Z,-6.44
2016-03-14T10:49:29.414Z,-6.48
2016-03-14T10:49:43.477Z,-6.4
2016-03-14T10:49:57.539Z,-6.38
2016-03-14T10:50:11.664Z,-6.4
2016-03-14T10:50:39.776Z,-6.37
2016-03-14T10:50:53.885Z,-6.37
2016-03-14T10:51:07.870Z,-6.43
2016-03-14T10:51:21.873Z,-6.48
2016-03-14T10:51:35.763Z,-6.44
2016-03-14T10:51:49.919Z,-6.49
2016-03-14T10:52:03.185Z,-6.46
2016-03-14T10:52:17.437Z,-6.4
2016-03-14T10:52:31.640Z,-6.41
2016-03-14T10:52:45.859Z,-6.58
2016-03-14T10:52:59.781Z,-6.58
2016-03-14T10:53:13.815Z,-6.54
2016-03-14T10:53:27.971Z,-6.51
2016-03-14T10:53:41.878Z,-6.46
2016-03-14T10:53:55.893Z,-6.41
2016-03-14T10:54:09.284Z,-6.44
2016-03-14T10:54:23.615Z,-6.41
2016-03-14T10:54:37.677Z,-6.46
2016-03-14T10:54:51.693Z,-6.34
2016-03-14T10:55:05.646Z,-6.36
2016-03-14T10:55:19.601Z,-6.4
2016-03-14T10:55:33.804Z,-6.36
2016-03-14T10:55:47.929Z,-6.4
2016-03-14T10:56:01.961Z,-6.34
2016-03-14T10:56:15.887Z,-6.33
2016-03-14T10:56:30.262Z,-6.38
2016-03-14T10:56:44.418Z,-6.4
2016-03-14T10:56:58.308Z,-6.43
2016-03-14T10:57:12.121Z,-6.4
2016-03-14T10:57:26.092Z,-6.48
2016-03-14T10:57:40.029Z,-6.52
2016-03-14T10:57:54.217Z,-6.37
2016-03-14T10:58:08.592Z,-6.4
2016-03-14T10:58:22.798Z,-6.4
2016-03-14T10:58:36.813Z,-6.4
2016-03-14T10:58:50.751Z,-6.48
2016-03-14T10:59:04.782Z,-6.34
2016-03-14T10:59:18.909Z,-6.38
2016-03-14T10:59:33.112Z,-6.34
2016-03-14T10:59:47.378Z,-6.3
2016-03-14T11:00:01.144Z,-6.3
2016-03-14T11:00:15.834Z,-6.38
2016-03-14T11:00:29.787Z,-6.28
2016-03-14T11:00:44.053Z,-6.37
2016-03-14T11:00:58.023Z,-6.22
2016-03-14T11:01:12.069Z,-6.18
2016-03-14T11:01:26.291Z,-6.16
2016-03-14T11:01:40.307Z,-6.26
2016-03-14T11:01:54.369Z,-6.2
2016-03-14T11:02:08.369Z,-6.23
2016-03-14T11:02:22.684Z,-6.22
2016-03-14T11:02:36.887Z,-6.26
2016-03-14T11:02:50.856Z,-6.26
2016-03-14T11:03:04.871Z,-6.26
2016-03-14T11:03:18.937Z,-6.36
2016-03-14T11:03:33.062Z,-6.2
2016-03-14T11:03:46.937Z,-6.2
2016-03-14T11:04:00.781Z,-6.25
2016-03-14T11:04:14.737Z,-6.22
2016-03-14T11:04:28.940Z,-6.18
2016-03-14T11:04:42.784Z,-6.19
2016-03-14T11:04:56.955Z,-6.08
2016-03-14T11:05:10.737Z,-6.04
2016-03-14T11:05:24.662Z,-6.22
2016-03-14T11:05:38.708Z,-6.12
2016-03-14T11:05:52.818Z,-6.2
2016-03-14T11:06:06.771Z,-6.26
2016-03-14T11:06:20.789Z,-6.3
2016-03-14T11:06:34.867Z,-6.36
2016-03-14T11:06:49.179Z,-6.34
2016-03-14T11:07:03.429Z,-6.31
2016-03-14T11:07:17.448Z,-6.37
2016-03-14T11:07:31.401Z,-6.28
2016-03-14T11:07:45.338Z,-6.33
2016-03-14T11:07:59.479Z,-6.37
2016-03-14T11:08:13.451Z,-6.4
2016-03-14T11:08:27.685Z,-6.34
2016-03-14T11:08:41.748Z,-6.38
2016-03-14T11:08:55.716Z,-6.4
2016-03-14T11:09:09.670Z,-6.37
2016-03-14T11:09:23.687Z,-6.49
2016-03-14T11:09:37.922Z,-6.41
2016-03-14T11:09:52.015Z,-6.41
2016-03-14T11:10:05.968Z,-6.4
2016-03-14T11:10:20.393Z,-6.37
2016-03-14T11:10:33.628Z,-6.33
2016-03-14T11:10:48.065Z,-6.3
2016-03-14T11:11:02.081Z,-6.37
2016-03-14T11:11:16.098Z,-6.38
2016-03-14T11:11:30.536Z,-6.33
2016-03-14T11:11:44.677Z,-6.38
2016-03-14T11:11:58.677Z,-6.3
2016-03-14T11:12:12.836Z,-6.36
2016-03-14T11:12:27.101Z,-6.31
2016-03-14T11:12:41.039Z,-6.38
2016-03-14T11:12:55.539Z,-6.34
2016-03-14T11:13:09.742Z,-6.38
2016-03-14T11:13:23.948Z,-6.36
2016-03-14T11:13:37.964Z,-6.33
2016-03-14T11:13:51.933Z,-6.38
2016-03-14T11:14:05.839Z,-6.23
2016-03-14T11:14:19.795Z,-6.19
2016-03-14T11:14:34.061Z,-6.22
2016-03-14T11:14:48.389Z,-6.22
2016-03-14T11:15:02.451Z,-6.18
2016-03-14T11:15:16.595Z,-6.22
2016-03-14T11:15:30.673Z,-6.23
2016-03-14T11:15:44.751Z,-6.2
2016-03-14T11:15:59.001Z,-6.26
2016-03-14T11:16:13.019Z,-6.25
2016-03-14T11:16:26.987Z,-6.2
2016-03-14T11:16:41.112Z,-6.22
2016-03-14T11:16:55.159Z,-6.23
2016-03-14T11:17:09.144Z,-6.23
2016-03-14T11:17:23.256Z,-6.26
2016-03-14T11:17:37.319Z,-6.36
2016-03-14T11:18:05.365Z,-6.3
2016-03-14T11:18:19.399Z,-6.34
2016-03-14T11:18:33.836Z,-6.44
2016-03-14T11:18:47.946Z,-6.41
2016-03-14T11:19:01.117Z,-6.49
2016-03-14T11:19:14.636Z,-6.44
2016-03-14T11:19:28.683Z,-6.44
2016-03-14T11:19:43.214Z,-6.51
2016-03-14T11:19:57.167Z,-6.37
2016-03-14T11:20:11.245Z,-6.48
2016-03-14T11:20:25.186Z,-6.48
2016-03-14T11:20:39.248Z,-6.37
2016-03-14T11:20:53.155Z,-6.37
2016-03-14T11:21:07.217Z,-6.34
2016-03-14T11:21:21.173Z,-6.36
2016-03-14T11:21:35.048Z,-6.3
2016-03-14T11:21:49.004Z,-6.28
2016-03-14T11:22:02.833Z,-6.23
2016-03-14T11:22:16.975Z,-6.23
2016-03-14T11:22:30.991Z,-6.25
2016-03-14T11:22:44.881Z,-6.3
2016-03-14T11:22:58.350Z,-6.33
2016-03-14T11:23:39.696Z,-6.36
2016-03-14T11:23:53.633Z,-6.4
2016-03-14T11:24:07.962Z,-6.38
2016-03-14T11:24:21.058Z,-6.4
2016-03-14T11:24:34.949Z,-6.41
2016-03-14T11:24:49.136Z,-6.4
2016-03-14T11:25:03.246Z,-6.38
2016-03-14T11:25:17.264Z,-6.4
2016-03-14T11:25:31.155Z,-6.4
2016-03-14T11:25:44.624Z,-6.49
2016-03-14T11:25:58.811Z,-6.55
2016-03-14T11:26:12.858Z,-6.55
2016-03-14T11:26:26.783Z,-6.55
2016-03-14T11:26:40.971Z,-6.54
2016-03-14T11:26:55.064Z,-6.43
2016-03-14T11:27:09.314Z,-6.44
2016-03-14T11:27:23.269Z,-6.43
2016-03-14T11:27:37.504Z,-6.43
2016-03-14T11:27:52.160Z,-6.37
2016-03-14T11:28:06.285Z,-6.44
2016-03-14T11:28:20.538Z,-6.41
2016-03-14T11:28:34.569Z,-6.4
2016-03-14T11:28:48.444Z,-6.33
2016-03-14T11:29:02.476Z,-6.37
2016-03-14T11:29:16.666Z,-6.38
2016-03-14T11:29:30.744Z,-6.4
2016-03-14T11:29:44.635Z,-6.38
2016-03-14T11:29:58.572Z,-6.34
2016-03-14T11:30:12.791Z,-6.41
2016-03-14T11:30:29.637Z,-6.48
2016-03-14T11:30:43.840Z,-6.49
2016-03-14T11:30:57.996Z,-6.48
2016-03-14T11:31:11.059Z,-6.46
2016-03-14T11:31:39.656Z,-6.4
2016-03-14T11:31:53.781Z,-6.43
2016-03-14T11:32:07.797Z,-6.51
2016-03-14T11:32:25.221Z,-6.43
2016-03-14T11:32:39.112Z,-6.4
2016-03-14T11:32:53.065Z,-6.41
2016-03-14T11:33:06.908Z,-6.48
2016-03-14T11:33:22.177Z,-6.44
2016-03-14T11:33:36.146Z,-6.44
2016-03-14T11:33:50.130Z,-6.43
2016-03-14T11:34:03.927Z,-6.54
2016-03-14T11:34:17.789Z,-6.58
2016-03-14T11:34:32.555Z,-6.7
2016-03-14T11:34:46.696Z,-6.67
2016-03-14T11:35:31.963Z,-6.68
2016-03-14T11:35:46.651Z,-6.7
2016-03-14T11:36:00.604Z,-6.58
2016-03-14T11:36:15.076Z,-6.55
2016-03-14T11:36:29.294Z,-6.63
2016-03-14T11:36:43.216Z,-6.6
2016-03-14T11:36:57.029Z,-6.62
2016-03-14T11:37:11.044Z,-6.58
2016-03-14T11:37:25.234Z,-6.6
2016-03-14T11:37:39.703Z,-6.41
2016-03-14T11:37:53.687Z,-6.4
2016-03-14T11:38:07.656Z,-6.38
2016-03-14T11:38:21.721Z,-6.4
2016-03-14T11:38:35.987Z,-6.33
2016-03-14T11:38:49.971Z,-6.3
2016-03-14T11:39:04.003Z,-6.34
2016-03-14T11:39:18.131Z,-6.4
2016-03-14T11:39:32.287Z,-6.37
2016-03-14T11:39:46.256Z,-6.34
2016-03-14T11:40:27.711Z,-6.28
2016-03-14T11:40:41.586Z,-6.36
2016-03-14T11:40:55.476Z,-6.28
2016-03-14T11:41:09.836Z,-6.31
2016-03-14T11:41:23.871Z,-6.38
2016-03-14T11:41:37.777Z,-6.25
2016-03-14T11:41:51.652Z,-6.25
2016-03-14T11:42:05.668Z,-6.25
2016-03-14T11:42:19.795Z,-6.26
2016-03-14T11:42:33.810Z,-6.34
2016-03-14T11:42:47.764Z,-6.34
2016-03-14T11:43:01.779Z,-6.36
2016-03-14T11:43:15.922Z,-6.3
2016-03-14T11:43:30.109Z,-6.4
2016-03-14T11:43:44.078Z,-6.36
2016-03-14T11:43:58.016Z,-6.31
2016-03-14T11:44:12.391Z,-6.31
2016-03-14T11:44:26.237Z,-6.37
2016-03-14T11:44:40.112Z,-6.44
2016-03-14T11:44:54.675Z,-6.34
2016-03-14T11:45:08.800Z,-6.36
2016-03-14T11:45:22.818Z,-6.37
2016-03-14T11:45:37.037Z,-6.34
2016-03-14T11:45:50.912Z,-6.37
2016-03-14T11:46:04.928Z,-6.33
2016-03-14T11:46:19.040Z,-6.37
2016-03-14T11:46:33.009Z,-6.43
2016-03-14T11:46:46.275Z,-6.43
2016-03-14T11:47:01.056Z,-6.4
2016-03-14T11:47:15.073Z,-6.4
2016-03-14T11:47:29.511Z,-6.4
2016-03-14T11:47:43.464Z,-6.38
2016-03-14T11:47:57.417Z,-6.3
2016-03-14T11:48:11.589Z,-6.37
2016-03-14T11:48:25.795Z,-6.36
2016-03-14T11:48:40.123Z,-6.31
2016-03-14T11:48:54.139Z,-6.33
2016-03-14T11:49:08.061Z,-6.37
2016-03-14T11:49:22.173Z,-6.34
2016-03-14T11:49:35.814Z,-6.4
2016-03-14T11:49:49.939Z,-6.38
2016-03-14T11:50:04.126Z,-6.37
2016-03-14T11:50:18.957Z,-6.22
2016-03-14T11:50:32.911Z,-6.34
2016-03-14T11:50:47.176Z,-6.28
2016-03-14T11:51:01.692Z,-6.26
2016-03-14T11:51:16.069Z,-6.23
2016-03-14T11:51:30.256Z,-6.2
2016-03-14T11:51:44.459Z,-6.22
2016-03-14T11:51:58.413Z,-6.28
2016-03-14T11:52:12.538Z,-6.19
2016-03-14T11:52:26.525Z,-6.13
2016-03-14T11:52:40.822Z,-6.19
2016-03-14T11:53:14.605Z,-6.12
2016-03-14T11:53:28.636Z,-6.15
2016-03-14T11:53:42.714Z,-6.19
2016-03-14T11:53:56.683Z,-6.19
2016-03-14T11:54:10.918Z,-6.13
2016-03-14T11:54:24.273Z,-6.18
2016-03-14T11:54:38.304Z,-6.23
2016-03-14T11:54:52.257Z,-6.28
2016-03-14T11:55:06.289Z,-6.2
2016-03-14T11:55:20.267Z,-6.22
2016-03-14T11:55:34.329Z,-6.22
2016-03-14T11:55:48.236Z,-6.3
2016-03-14T11:56:02.251Z,-6.36
2016-03-14T11:56:16.259Z,-6.33
2016-03-14T11:56:30.259Z,-6.36
2016-03-14T11:57:15.689Z,-6.3
2016-03-14T11:57:57.893Z,-6.33